Time;durP1;ratioP1;P1;durP2;ratioP2;P2;SDS_P1;SDS_P2;PMS_P1;PMS_P2;Temp;Humidity;BMP_temperature;BMP_pressure;BME280_temperature;BME280_humidity;BME280_pressure;Samples;Min_cycle;Max_cycle;Signal;HPM_P1;HPM_P2
2023/05/07 00:01:42;;;;;;;841.77;764.20;;;13.70;99.90;;;;;;6215530;23;20420;-85
2023/05/07 00:04:09;;;;;;;849.07;770.70;;;13.60;99.90;;;;;;6215411;23;20424;-86
2023/05/07 00:06:37;;;;;;;836.63;758.50;;;13.60;99.90;;;;;;6215459;23;20814;-85
2023/05/07 00:09:05;;;;;;;845.00;766.17;;;13.60;99.90;;;;;;6225122;23;20416;-86
2023/05/07 00:11:32;;;;;;;853.47;774.20;;;13.50;99.90;;;;;;6215472;23;20446;-85
2023/05/07 00:13:59;;;;;;;850.90;771.53;;;13.40;99.90;;;;;;6215494;23;20576;-86
2023/05/07 00:16:26;;;;;;;835.33;755.03;;;13.40;99.90;;;;;;6214716;23;20412;-86
2023/05/07 00:18:53;;;;;;;836.33;753.93;;;13.40;99.90;;;;;;6214781;23;20418;-85
2023/05/07 00:21:21;;;;;;;844.73;761.70;;;13.50;99.90;;;;;;6215428;23;20419;-86
2023/05/07 00:23:48;;;;;;;849.33;765.67;;;13.50;99.90;;;;;;6215906;23;20482;-85
2023/05/07 00:26:16;;;;;;;836.90;752.87;;;13.40;99.90;;;;;;6214918;23;20447;-86
2023/05/07 00:28:43;;;;;;;837.80;753.50;;;13.40;99.90;;;;;;6214694;23;20495;-86
2023/05/07 00:31:10;;;;;;;843.73;758.23;;;13.40;99.90;;;;;;6224693;23;20416;-86
2023/05/07 00:33:38;;;;;;;841.53;755.50;;;13.40;99.90;;;;;;6215402;23;20491;-85
2023/05/07 00:36:06;;;;;;;828.13;742.10;;;13.40;99.90;;;;;;6215185;23;20443;-85
2023/05/07 00:38:33;;;;;;;817.20;731.23;;;13.40;99.90;;;;;;6215070;23;20801;-86
2023/05/07 00:41:00;;;;;;;833.60;747.37;;;13.40;99.90;;;;;;6215295;23;20420;-85
2023/05/07 00:43:28;;;;;;;828.00;741.60;;;13.40;99.90;;;;;;6214894;23;20455;-85
2023/05/07 00:45:56;;;;;;;826.57;739.20;;;13.40;99.90;;;;;;6215094;23;20506;-86
2023/05/07 00:48:24;;;;;;;835.30;746.80;;;13.40;99.90;;;;;;6214632;23;20416;-85
2023/05/07 00:50:51;;;;;;;834.23;746.53;;;13.40;99.90;;;;;;6214610;23;20899;-86
2023/05/07 00:53:18;;;;;;;846.00;757.67;;;13.40;99.90;;;;;;6225104;23;20869;-85
2023/05/07 00:55:45;;;;;;;823.80;737.60;;;13.40;99.90;;;;;;6215099;23;20499;-86
2023/05/07 00:58:12;;;;;;;825.17;739.50;;;13.40;99.90;;;;;;6214449;23;20434;-86
2023/05/07 01:00:40;;;;;;;825.30;738.53;;;13.40;99.90;;;;;;6214255;23;20411;-86
2023/05/07 01:03:07;;;;;;;830.80;743.27;;;13.40;99.90;;;;;;6214963;23;20751;-86
2023/05/07 01:05:34;;;;;;;815.17;728.60;;;13.30;99.90;;;;;;6214473;23;20443;-85
2023/05/07 01:08:01;;;;;;;805.33;719.60;;;13.40;99.90;;;;;;6214803;23;20420;-86
2023/05/07 01:10:30;;;;;;;841.60;754.73;;;13.30;99.90;;;;;;6214952;23;20770;-85
2023/05/07 01:12:59;;;;;;;838.90;752.03;;;13.40;99.90;;;;;;6215191;23;20790;-86
2023/05/07 01:15:26;;;;;;;826.83;740.43;;;13.40;99.90;;;;;;6214959;23;20419;-85
2023/05/07 01:17:54;;;;;;;825.57;739.57;;;13.40;99.90;;;;;;6214531;23;20454;-86
2023/05/07 01:20:22;;;;;;;828.10;742.10;;;13.40;99.90;;;;;;6214719;23;20463;-85
2023/05/07 01:22:51;;;;;;;828.10;743.03;;;13.50;99.90;;;;;;6224842;23;20412;-86
2023/05/07 01:25:18;;;;;;;814.13;730.23;;;13.50;99.90;;;;;;6214869;23;20463;-86
2023/05/07 01:27:45;;;;;;;814.40;730.97;;;13.40;99.90;;;;;;6217341;23;20906;-85
2023/05/07 01:30:13;;;;;;;824.33;741.53;;;13.50;99.90;;;;;;6217798;23;20908;-85
2023/05/07 01:32:44;;;;;;;828.50;746.50;;;13.30;99.90;;;;;;6218141;23;20420;-86
2023/05/07 01:35:12;;;;;;;822.30;740.67;;;13.30;99.90;;;;;;6218188;23;20400;-85
2023/05/07 01:37:40;;;;;;;799.07;718.87;;;13.30;99.90;;;;;;6218254;23;20918;-86
2023/05/07 01:40:10;;;;;;;800.27;719.57;;;13.30;99.90;;;;;;6217552;23;20420;-85
2023/05/07 01:42:37;;;;;;;793.60;713.60;;;13.30;99.90;;;;;;6218002;23;20892;-86
2023/05/07 01:45:04;;;;;;;808.60;728.80;;;13.30;99.90;;;;;;6218097;23;20467;-85
2023/05/07 01:47:31;;;;;;;795.97;716.57;;;13.30;99.90;;;;;;6218101;23;20416;-85
2023/05/07 01:49:58;;;;;;;807.37;727.03;;;13.20;99.90;;;;;;6218266;23;20420;-85
2023/05/07 01:52:26;;;;;;;811.23;731.30;;;13.20;99.90;;;;;;6218358;23;20416;-85
2023/05/07 01:54:52;;;;;;;810.60;730.80;;;13.30;99.90;;;;;;6218492;23;20411;-86
2023/05/07 01:57:21;;;;;;;804.23;724.17;;;13.20;99.90;;;;;;6218047;23;20412;-86
2023/05/07 01:59:47;;;;;;;822.83;742.00;;;13.10;99.90;;;;;;6217465;23;20495;-86
2023/05/07 02:02:15;;;;;;;817.57;736.50;;;13.20;99.90;;;;;;6217907;23;20507;-86
2023/05/07 02:04:41;;;;;;;809.67;728.13;;;13.20;99.90;;;;;;6218030;23;20415;-87
2023/05/07 02:07:08;;;;;;;803.57;721.43;;;13.10;99.90;;;;;;6218144;23;20511;-86
2023/05/07 02:09:35;;;;;;;814.47;730.37;;;13.10;99.90;;;;;;6218114;23;20412;-87
2023/05/07 02:12:02;;;;;;;821.37;739.40;;;13.00;99.90;;;;;;6217988;23;20416;-86
2023/05/07 02:14:30;;;;;;;808.33;726.20;;;12.90;99.90;;;;;;6218057;23;20438;-86
2023/05/07 02:16:57;;;;;;;805.97;721.77;;;12.90;99.90;;;;;;6217908;23;20414;-85
2023/05/07 02:19:24;;;;;;;803.83;718.63;;;12.70;99.90;;;;;;6217866;23;20423;-85
2023/05/07 02:21:52;;;;;;;808.27;722.77;;;12.70;99.90;;;;;;6218593;23;20440;-85
2023/05/07 02:24:19;;;;;;;818.67;733.37;;;12.70;99.90;;;;;;6218019;23;20757;-85
2023/05/07 02:26:46;;;;;;;813.97;727.57;;;12.60;99.90;;;;;;6217500;23;20463;-85
2023/05/07 02:29:14;;;;;;;821.83;733.90;;;12.50;99.90;;;;;;6217445;23;20491;-85
2023/05/07 02:31:44;;;;;;;824.87;736.70;;;12.50;99.90;;;;;;6228186;23;20419;-88
2023/05/07 02:34:11;;;;;;;826.00;736.80;;;12.50;99.90;;;;;;6228613;23;20754;-85
2023/05/07 02:36:38;;;;;;;814.57;726.43;;;12.40;99.90;;;;;;6227580;23;20880;-85
2023/05/07 02:39:05;;;;;;;840.37;750.97;;;12.30;99.90;;;;;;6216062;23;20412;-86
2023/05/07 02:41:32;;;;;;;832.20;741.90;;;12.20;99.90;;;;;;6215535;23;20416;-83
2023/05/07 02:43:59;;;;;;;830.73;740.97;;;12.10;99.90;;;;;;6215006;23;20491;-85
2023/05/07 02:46:25;;;;;;;841.47;751.00;;;12.00;99.90;;;;;;6215541;23;20438;-85
2023/05/07 02:48:54;;;;;;;839.40;748.70;;;12.00;99.90;;;;;;6215347;23;20455;-85
2023/05/07 02:51:22;;;;;;;831.37;741.47;;;11.90;99.90;;;;;;6225954;23;20415;-85
2023/05/07 02:53:49;;;;;;;814.20;725.30;;;11.90;99.90;;;;;;6215959;23;20519;-86
2023/05/07 02:56:16;;;;;;;801.47;713.17;;;11.80;99.90;;;;;;6225466;23;20744;-84
2023/05/07 02:58:43;;;;;;;785.37;686.83;;;11.80;99.90;;;;;;6215590;23;20419;-86
2023/05/07 03:01:10;;;;;;;789.33;689.97;;;11.70;99.90;;;;;;6215960;23;20420;-85
2023/05/07 03:03:37;;;;;;;789.03;696.87;;;11.80;99.90;;;;;;6215668;23;20412;-85
2023/05/07 03:06:06;;;;;;;794.87;693.40;;;11.80;99.90;;;;;;6215682;23;20515;-85
2023/05/07 03:08:33;;;;;;;802.67;692.97;;;11.90;99.90;;;;;;6215424;23;20408;-85
2023/05/07 03:11:01;;;;;;;811.77;709.80;;;12.00;99.90;;;;;;6215933;23;20443;-85
2023/05/07 03:13:28;;;;;;;811.97;701.93;;;12.10;99.90;;;;;;6215769;23;20436;-86
2023/05/07 03:15:55;;;;;;;810.17;696.03;;;12.10;99.90;;;;;;6226082;23;20463;-86
2023/05/07 03:18:22;;;;;;;801.27;692.27;;;12.10;99.90;;;;;;6225356;23;20481;-85
2023/05/07 03:20:51;;;;;;;801.27;683.87;;;12.10;99.90;;;;;;6215518;23;20416;-85
2023/05/07 03:23:19;;;;;;;802.07;674.37;;;12.10;99.90;;;;;;6215791;23;20416;-85
2023/05/07 03:25:46;;;;;;;800.50;682.50;;;12.10;99.90;;;;;;6215894;23;20459;-85
2023/05/07 03:28:13;;;;;;;805.80;680.60;;;12.10;99.90;;;;;;6215788;23;20793;-85
2023/05/07 03:30:40;;;;;;;804.10;684.70;;;12.10;99.90;;;;;;6215279;23;20416;-85
2023/05/07 03:33:07;;;;;;;790.83;675.77;;;12.10;99.90;;;;;;6215567;23;20451;-85
2023/05/07 03:35:35;;;;;;;782.40;675.10;;;12.00;99.90;;;;;;6215509;23;20408;-86
2023/05/07 03:38:02;;;;;;;777.70;670.77;;;12.10;99.90;;;;;;6225732;23;20411;-85
2023/05/07 03:40:30;;;;;;;783.30;681.20;;;11.90;99.90;;;;;;6215150;23;20423;-85
2023/05/07 03:42:57;;;;;;;784.27;681.07;;;11.80;99.90;;;;;;6224859;23;20416;-84
2023/05/07 03:45:24;;;;;;;803.43;675.57;;;11.80;99.90;;;;;;6215243;23;20447;-84
2023/05/07 03:47:51;;;;;;;818.50;677.10;;;11.80;99.90;;;;;;6215015;23;20420;-84
2023/05/07 03:50:18;;;;;;;818.57;677.13;;;11.80;99.90;;;;;;6213887;23;20426;-82
2023/05/07 03:52:45;;;;;;;815.57;668.40;;;11.80;99.90;;;;;;6215148;23;20959;-85
2023/05/07 03:55:12;;;;;;;819.37;661.50;;;11.90;99.90;;;;;;6215133;23;20416;-85
2023/05/07 03:57:40;;;;;;;818.47;668.77;;;12.00;99.90;;;;;;6225361;23;20466;-85
2023/05/07 04:00:08;;;;;;;820.67;683.70;;;11.90;99.90;;;;;;6215295;23;20415;-85
2023/05/07 04:02:35;;;;;;;822.83;703.07;;;12.00;99.90;;;;;;6224949;23;20423;-85
2023/05/07 04:05:02;;;;;;;829.07;697.90;;;12.00;99.90;;;;;;6215054;23;20442;-85
2023/05/07 04:07:29;;;;;;;818.33;687.70;;;12.10;99.90;;;;;;6215118;23;20436;-85
2023/05/07 04:09:56;;;;;;;815.57;689.70;;;12.10;99.90;;;;;;6214413;23;20495;-85
2023/05/07 04:12:23;;;;;;;813.57;704.73;;;12.10;99.90;;;;;;6225344;23;20488;-86
2023/05/07 04:14:51;;;;;;;803.00;693.57;;;12.10;99.90;;;;;;6215047;23;20412;-85
2023/05/07 04:17:18;;;;;;;793.10;684.87;;;12.10;99.90;;;;;;6215262;23;20408;-86
2023/05/07 04:19:45;;;;;;;789.43;675.60;;;12.10;99.90;;;;;;6215261;23;20416;-85
2023/05/07 04:22:12;;;;;;;795.67;703.33;;;12.10;99.90;;;;;;6214823;23;20508;-85
2023/05/07 04:24:39;;;;;;;780.07;676.10;;;12.30;99.90;;;;;;6215221;23;20482;-84
2023/05/07 04:27:06;;;;;;;768.63;676.50;;;12.30;99.90;;;;;;6214771;23;20936;-85
2023/05/07 04:29:33;;;;;;;765.10;670.87;;;12.20;99.90;;;;;;6215043;23;20408;-85
2023/05/07 04:32:01;;;;;;;762.90;678.80;;;12.30;99.90;;;;;;6214363;23;20503;-85
2023/05/07 04:34:28;;;;;;;757.03;674.63;;;12.50;99.90;;;;;;6215116;23;20519;-84
2023/05/07 04:36:55;;;;;;;767.10;682.90;;;12.50;99.90;;;;;;6214601;23;20409;-85
2023/05/07 04:39:21;;;;;;;761.00;677.90;;;12.60;99.90;;;;;;6214133;23;20416;-87
2023/05/07 04:41:48;;;;;;;747.57;666.20;;;12.60;99.90;;;;;;6224354;23;20409;-85
2023/05/07 04:44:16;;;;;;;747.20;666.10;;;12.70;99.90;;;;;;6214894;23;20418;-85
2023/05/07 04:46:43;;;;;;;741.57;661.10;;;12.80;99.90;;;;;;6214833;23;20436;-85
2023/05/07 04:49:11;;;;;;;746.90;667.20;;;12.80;99.90;;;;;;6214834;23;20422;-86
2023/05/07 04:51:42;;;;;;;747.40;669.50;;;12.80;99.90;;;;;;6214885;23;20415;-85
2023/05/07 04:54:09;;;;;;;760.37;682.77;;;12.80;99.90;;;;;;6214331;23;20404;-84
2023/05/07 04:56:36;;;;;;;758.30;681.70;;;12.90;99.90;;;;;;6224881;23;20479;-84
2023/05/07 04:59:03;;;;;;;757.63;681.53;;;12.90;99.90;;;;;;6214148;23;20416;-84
2023/05/07 05:01:30;;;;;;;756.10;681.60;;;13.10;99.90;;;;;;6214122;23;20447;-83
2023/05/07 05:03:57;;;;;;;751.53;677.90;;;13.10;99.90;;;;;;6214376;23;20412;-84
2023/05/07 05:06:25;;;;;;;750.40;677.60;;;13.20;99.90;;;;;;6214701;23;20436;-83
2023/05/07 05:08:52;;;;;;;760.83;689.00;;;13.20;99.90;;;;;;6214938;23;20478;-84
2023/05/07 05:11:19;;;;;;;756.23;685.03;;;13.40;99.90;;;;;;6225143;23;20416;-85
2023/05/07 05:13:48;;;;;;;761.27;692.63;;;13.50;99.90;;;;;;6214502;23;20498;-84
2023/05/07 05:16:15;;;;;;;758.10;691.13;;;13.60;99.90;;;;;;6214541;23;20409;-83
2023/05/07 05:18:42;;;;;;;771.10;707.30;;;13.70;99.90;;;;;;6214338;23;20470;-84
2023/05/07 05:21:09;;;;;;;757.20;694.97;;;13.70;99.90;;;;;;6214532;23;20904;-84
2023/05/07 05:23:37;;;;;;;750.73;690.53;;;13.90;99.90;;;;;;6213896;23;20455;-84
2023/05/07 05:26:04;;;;;;;748.83;691.83;;;14.00;99.90;;;;;;6213240;23;20418;-85
2023/05/07 05:28:31;;;;;;;752.13;695.63;;;14.00;99.90;;;;;;6214179;23;20448;-83
2023/05/07 05:30:58;;;;;;;740.07;687.33;;;14.10;99.90;;;;;;6214105;23;20491;-85
2023/05/07 05:33:25;;;;;;;712.13;664.43;;;14.10;99.90;;;;;;6214865;23;20747;-84
2023/05/07 05:35:51;;;;;;;711.30;663.43;;;14.20;99.90;;;;;;6214675;23;20412;-84
2023/05/07 05:38:19;;;;;;;711.60;663.80;;;14.20;99.90;;;;;;6214807;23;20412;-84
2023/05/07 05:40:47;;;;;;;691.80;646.40;;;14.30;99.90;;;;;;6214226;23;20413;-84
2023/05/07 05:43:14;;;;;;;678.77;635.63;;;14.30;99.90;;;;;;6214485;23;20895;-83
2023/05/07 05:45:41;;;;;;;682.77;639.37;;;14.30;99.90;;;;;;6214308;23;20412;-84
2023/05/07 05:48:09;;;;;;;700.73;655.73;;;14.40;99.90;;;;;;6214594;23;20442;-83
2023/05/07 05:50:36;;;;;;;688.50;644.57;;;14.50;99.90;;;;;;6214027;23;20500;-84
2023/05/07 05:53:03;;;;;;;690.30;646.33;;;14.60;99.90;;;;;;6215060;23;20482;-84
2023/05/07 05:55:32;;;;;;;697.10;650.80;;;14.70;99.90;;;;;;6224319;23;20413;-84
2023/05/07 05:58:00;;;;;;;684.13;640.00;;;14.70;99.90;;;;;;6214079;23;20436;-85
2023/05/07 06:00:28;;;;;;;658.60;619.90;;;14.90;99.90;;;;;;6214181;23;20418;-84
2023/05/07 06:02:54;;;;;;;650.60;614.83;;;14.90;99.90;;;;;;6214774;23;20754;-84
2023/05/07 06:05:21;;;;;;;615.77;585.87;;;15.20;99.90;;;;;;6214294;23;20413;-85
2023/05/07 06:07:48;;;;;;;569.43;545.77;;;15.20;99.90;;;;;;6213660;23;20441;-84
2023/05/07 06:10:15;;;;;;;534.57;514.47;;;15.20;99.90;;;;;;6214036;23;20743;-84
2023/05/07 06:12:42;;;;;;;525.20;505.70;;;15.20;99.90;;;;;;6213749;23;20414;-84
2023/05/07 06:15:11;;;;;;;501.87;483.87;;;15.30;99.90;;;;;;6216129;23;20608;-84
2023/05/07 06:17:38;;;;;;;492.00;474.73;;;15.40;99.90;;;;;;6216385;23;20483;-85
2023/05/07 06:20:06;;;;;;;466.80;450.90;;;15.60;99.90;;;;;;6225908;23;20438;-85
2023/05/07 06:22:33;;;;;;;324.60;314.40;;;15.90;99.90;;;;;;6226296;23;20423;-85
2023/05/07 06:25:00;;;;;;;109.60;105.60;;;16.10;99.90;;;;;;6215783;23;20417;-85
2023/05/07 06:27:27;;;;;;;40.73;38.97;;;16.40;99.90;;;;;;6216315;23;20438;-85
2023/05/07 06:29:54;;;;;;;13.70;12.80;;;16.60;99.90;;;;;;6215403;23;20748;-85
2023/05/07 06:32:23;;;;;;;13.13;12.07;;;16.80;99.90;;;;;;6216068;23;20421;-86
2023/05/07 06:34:50;;;;;;;7.70;7.00;;;17.00;99.90;;;;;;6216276;23;20418;-85
2023/05/07 06:37:17;;;;;;;5.90;4.80;;;17.10;99.90;;;;;;6226066;23;20427;-84
2023/05/07 06:39:44;;;;;;;6.87;5.00;;;17.10;99.90;;;;;;6215421;23;20421;-83
2023/05/07 06:42:11;;;;;;;7.80;4.10;;;17.40;99.90;;;;;;6226090;23;20416;-84
2023/05/07 06:44:38;;;;;;;6.07;4.80;;;17.60;99.90;;;;;;6216066;23;20469;-84
2023/05/07 06:47:05;;;;;;;5.53;3.90;;;17.70;99.90;;;;;;6215878;23;20434;-84
2023/05/07 06:49:34;;;;;;;10.07;3.93;;;17.80;99.90;;;;;;6215910;23;20418;-83
2023/05/07 06:52:02;;;;;;;6.03;3.57;;;18.00;99.90;;;;;;6216259;23;20421;-83
2023/05/07 06:54:30;;;;;;;6.07;3.43;;;18.10;99.90;;;;;;6216343;23;20881;-83
2023/05/07 06:56:57;;;;;;;5.80;2.90;;;18.30;99.90;;;;;;6216251;23;20501;-84
2023/05/07 06:59:25;;;;;;;6.50;3.10;;;18.30;99.90;;;;;;6216134;23;20450;-84
2023/05/07 07:01:54;;;;;;;8.43;3.30;;;18.40;99.90;;;;;;6225447;23;20429;-84
2023/05/07 07:04:25;;;;;;;5.80;3.20;;;18.50;99.90;;;;;;6226552;23;20500;-84
2023/05/07 07:06:56;;;;;;;7.50;3.40;;;18.70;99.90;;;;;;6226338;23;20437;-84
2023/05/07 07:09:23;;;;;;;6.67;3.27;;;18.90;99.90;;;;;;6226130;23;20454;-81
2023/05/07 07:11:50;;;;;;;5.83;3.10;;;19.00;99.90;;;;;;6225750;23;20815;-83
2023/05/07 07:14:17;;;;;;;6.90;3.23;;;19.20;99.90;;;;;;6226114;23;20464;-83
2023/05/07 07:16:46;;;;;;;7.67;3.07;;;19.30;99.90;;;;;;6215686;23;20419;-84
2023/05/07 07:19:14;;;;;;;6.27;2.87;;;19.40;99.90;;;;;;6214260;23;20420;-83
2023/05/07 07:21:42;;;;;;;6.57;3.07;;;19.60;99.90;;;;;;6215640;23;20787;-83
2023/05/07 07:24:10;;;;;;;7.60;3.00;;;19.70;99.90;;;;;;6214350;23;20412;-84
2023/05/07 07:26:37;;;;;;;5.13;2.83;;;19.70;99.90;;;;;;6215419;23;20494;-84
2023/05/07 07:29:03;;;;;;;5.77;3.00;;;19.90;99.90;;;;;;6214709;23;20413;-83
2023/05/07 07:31:31;;;;;;;5.47;2.73;;;20.10;99.90;;;;;;6215472;23;20415;-84
2023/05/07 07:33:58;;;;;;;6.00;2.80;;;20.40;99.90;;;;;;6225401;23;20419;-84
2023/05/07 07:36:28;;;;;;;6.40;3.47;;;20.50;99.90;;;;;;6215547;23;20513;-87
2023/05/07 07:38:55;;;;;;;5.80;2.97;;;20.60;99.90;;;;;;6224174;23;20415;-83
2023/05/07 07:41:23;;;;;;;12.20;3.37;;;20.50;99.90;;;;;;6215282;23;20414;-84
2023/05/07 07:43:50;;;;;;;6.00;3.23;;;20.20;99.90;;;;;;6215402;23;20438;-83
2023/05/07 07:46:17;;;;;;;9.00;3.17;;;20.40;99.90;;;;;;6214506;23;20414;-84
2023/05/07 07:48:44;;;;;;;7.30;3.43;;;20.50;99.90;;;;;;6224276;23;20489;-83
2023/05/07 07:51:11;;;;;;;9.40;3.40;;;20.80;99.90;;;;;;6215204;23;20412;-84
2023/05/07 07:53:38;;;;;;;5.00;2.60;;;21.00;99.90;;;;;;6214336;23;20418;-83
2023/05/07 07:56:05;;;;;;;7.43;2.93;;;21.20;99.90;;;;;;6214207;23;20410;-84
2023/05/07 07:58:35;;;;;;;5.37;2.80;;;21.50;99.90;;;;;;6215432;23;20414;-84
2023/05/07 08:01:02;;;;;;;6.27;3.10;;;21.70;99.20;;;;;;6215288;23;20425;-84
2023/05/07 08:03:31;;;;;;;5.47;2.73;;;21.80;99.50;;;;;;6215773;23;20395;-86
2023/05/07 08:05:58;;;;;;;5.50;2.93;;;22.10;97.80;;;;;;6225777;23;20760;-86
2023/05/07 08:08:25;;;;;;;7.57;2.80;;;22.50;96.20;;;;;;6215487;23;20467;-86
2023/05/07 08:10:52;;;;;;;7.93;3.53;;;22.60;95.60;;;;;;6215132;23;20415;-87
2023/05/07 08:13:19;;;;;;;8.43;3.53;;;22.80;95.20;;;;;;6225605;23;20407;-87
2023/05/07 08:15:48;;;;;;;6.87;2.80;;;23.00;92.90;;;;;;6215536;23;20446;-86
2023/05/07 08:18:15;;;;;;;5.90;2.80;;;22.70;93.10;;;;;;6215660;23;20454;-86
2023/05/07 08:20:43;;;;;;;6.83;2.57;;;22.80;92.30;;;;;;6215616;23;20481;-86
2023/05/07 08:23:10;;;;;;;6.67;3.10;;;22.80;92.30;;;;;;6224966;23;20416;-86
2023/05/07 08:25:37;;;;;;;6.10;2.80;;;22.70;92.10;;;;;;6215320;23;20414;-86
2023/05/07 08:28:04;;;;;;;5.27;2.50;;;23.10;91.70;;;;;;6215144;23;20464;-86
2023/05/07 08:30:31;;;;;;;6.20;2.33;;;22.80;90.40;;;;;;6215350;23;20728;-86
2023/05/07 08:33:01;;;;;;;9.23;2.10;;;23.00;90.10;;;;;;6215404;23;20425;-86
2023/05/07 08:35:27;;;;;;;5.53;2.10;;;23.00;88.80;;;;;;6224602;23;20415;-86
2023/05/07 08:37:54;;;;;;;4.57;1.80;;;22.80;88.60;;;;;;6214893;23;20762;-86
2023/05/07 08:40:25;;;;;;;5.30;2.30;;;22.70;88.50;;;;;;6214997;23;20418;-86
2023/05/07 08:42:53;;;;;;;6.07;2.73;;;22.80;90.00;;;;;;6215302;23;20477;-86
2023/05/07 08:45:21;;;;;;;6.97;2.60;;;22.80;89.30;;;;;;6215139;23;20419;-86
2023/05/07 08:47:52;;;;;;;6.90;2.77;;;22.70;88.60;;;;;;6215168;23;20492;-85
2023/05/07 08:50:22;;;;;;;6.00;2.30;;;22.40;88.30;;;;;;6214682;23;20407;-86
2023/05/07 08:52:49;;;;;;;6.30;2.77;;;21.90;87.80;;;;;;6214658;23;20981;-86
2023/05/07 08:55:16;;;;;;;6.50;1.90;;;21.90;88.30;;;;;;6215130;23;20416;-85
2023/05/07 08:57:43;;;;;;;5.80;2.53;;;22.20;88.10;;;;;;6215281;23;20438;-86
2023/05/07 09:00:12;;;;;;;5.80;2.37;;;23.00;88.80;;;;;;6224462;23;20428;-86
2023/05/07 09:02:39;;;;;;;5.40;2.10;;;23.80;85.70;;;;;;6214848;23;20743;-86
2023/05/07 09:05:07;;;;;;;8.80;2.97;;;24.20;83.60;;;;;;6224898;23;20412;-86
2023/05/07 09:07:35;;;;;;;6.40;3.07;;;24.70;78.90;;;;;;6215024;23;20756;-86
2023/05/07 09:10:03;;;;;;;6.23;2.30;;;24.40;75.20;;;;;;6224564;23;20408;-86
2023/05/07 09:12:31;;;;;;;7.10;2.13;;;24.40;74.10;;;;;;6224967;23;20408;-86
2023/05/07 09:14:57;;;;;;;4.80;1.93;;;24.80;76.60;;;;;;6224647;23;20491;-86
2023/05/07 09:17:24;;;;;;;5.10;1.80;;;25.40;79.20;;;;;;6214565;23;20412;-86
2023/05/07 09:19:53;;;;;;;6.10;2.10;;;25.80;71.10;;;;;;6214729;23;20494;-86
2023/05/07 09:22:20;;;;;;;4.90;1.77;;;25.90;68.30;;;;;;6214813;23;20418;-86
2023/05/07 09:24:51;;;;;;;5.33;1.73;;;26.10;67.10;;;;;;6214492;23;20419;-84
2023/05/07 09:27:18;;;;;;;6.27;1.67;;;26.10;65.10;;;;;;6214761;23;20423;-84
2023/05/07 09:29:46;;;;;;;5.23;2.03;;;26.10;61.30;;;;;;6214286;23;20495;-84
2023/05/07 09:32:13;;;;;;;5.03;1.80;;;26.20;58.80;;;;;;6214733;23;20412;-84
2023/05/07 09:34:40;;;;;;;5.23;2.03;;;26.30;58.80;;;;;;6214784;23;20412;-85
2023/05/07 09:37:07;;;;;;;6.33;2.00;;;26.40;55.10;;;;;;6215017;23;20507;-85
2023/05/07 09:39:41;;;;;;;6.43;2.40;;;25.60;58.30;;;;;;6214384;23;20415;-85
2023/05/07 09:42:09;;;;;;;7.73;1.90;;;25.00;57.90;;;;;;6224533;23;20469;-85
2023/05/07 09:44:37;;;;;;;6.20;2.43;;;26.10;60.70;;;;;;6214779;23;20416;-86
2023/05/07 09:47:06;;;;;;;5.63;1.90;;;25.70;54.20;;;;;;6215334;23;20415;-85
2023/05/07 09:49:36;;;;;;;5.83;2.30;;;27.10;53.60;;;;;;6226304;23;20407;-85
2023/05/07 09:52:08;;;;;;;7.20;2.97;;;27.10;50.50;;;;;;6216850;23;20396;-85
2023/05/07 09:54:37;;;;;;;6.47;1.90;;;27.40;49.20;;;;;;6217023;23;20392;-85
2023/05/07 09:57:06;;;;;;;4.70;2.00;;;28.20;43.00;;;;;;6216869;23;20414;-85
2023/05/07 09:59:37;;;;;;;6.93;2.40;;;27.80;45.00;;;;;;6216758;23;20708;-85
2023/05/07 10:02:05;;;;;;;5.43;1.93;;;28.70;40.80;;;;;;6216597;23;20732;-86
2023/05/07 10:04:33;;;;;;;5.10;2.03;;;28.60;35.00;;;;;;6216377;23;20490;-85
2023/05/07 10:07:00;;;;;;;5.27;2.10;;;28.90;32.40;;;;;;6216703;23;20434;-85
2023/05/07 10:09:28;;;;;;;6.67;2.37;;;29.30;29.00;;;;;;6216047;23;20972;-85
2023/05/07 10:11:55;;;;;;;5.90;2.20;;;29.70;25.90;;;;;;6216640;23;20408;-85
2023/05/07 10:14:22;;;;;;;5.27;2.07;;;29.50;25.80;;;;;;6216228;23;20415;-85
2023/05/07 10:16:51;;;;;;;6.60;2.03;;;29.60;24.30;;;;;;6216743;23;20774;-86
2023/05/07 10:19:19;;;;;;;5.17;1.90;;;30.60;21.80;;;;;;6216192;23;20386;-86
2023/05/07 10:21:55;;;;;;;6.37;2.10;;;31.00;17.20;;;;;;6216666;23;20408;-85
2023/05/07 10:24:26;;;;;;;5.90;2.00;;;31.20;12.80;;;;;;6216969;23;20683;-87
2023/05/07 10:26:54;;;;;;;4.57;1.30;;;31.90;8.90;;;;;;6216323;23;20400;-86
2023/05/07 10:29:30;;;;;;;6.77;1.57;;;32.50;6.00;;;;;;6216460;23;20436;-86
2023/05/07 10:32:02;;;;;;;5.57;2.20;;;32.70;5.20;;;;;;6216316;23;20396;-86
2023/05/07 10:34:33;;;;;;;7.13;1.93;;;33.10;4.70;;;;;;6216167;23;20402;-86
2023/05/07 10:37:01;;;;;;;5.47;1.70;;;33.50;1.00;;;;;;6216832;23;20377;-86
2023/05/07 10:39:28;;;;;;;6.63;2.30;;;33.40;1.00;;;;;;6216031;23;20414;-85
2023/05/07 10:41:55;;;;;;;4.93;1.60;;;32.20;1.00;;;;;;6216666;23;20413;-86
2023/05/07 10:44:29;;;;;;;4.57;1.10;;;32.10;1.00;;;;;;6216334;23;20446;-86
2023/05/07 10:47:09;;;;;;;5.40;1.20;;;30.20;1.00;;;;;;6226170;23;20762;-86
2023/05/07 10:49:37;;;;;;;6.50;1.30;;;30.30;1.00;;;;;;6216425;23;20478;-86
2023/05/07 10:52:17;;;;;;;4.80;1.30;;;30.90;1.00;;;;;;6216885;23;20412;-86
2023/05/07 10:54:44;;;;;;;4.93;1.47;;;31.30;1.00;;;;;;6226376;23;20476;-85
2023/05/07 10:57:33;;;;;;;4.60;1.23;;;31.70;1.00;;;;;;6216145;23;20439;-86
2023/05/07 11:00:00;;;;;;;4.73;1.20;;;31.00;1.00;;;;;;6215554;23;20904;-85
2023/05/07 11:03:07;;;;;;;4.70;1.50;;;30.70;1.00;;;;;;6216138;23;20458;-86
2023/05/07 11:05:35;;;;;;;5.07;1.50;;;30.90;1.00;;;;;;6226038;23;20740;-86
2023/05/07 11:08:02;;;;;;;5.53;1.60;;;32.00;1.00;;;;;;6226312;23;20461;-86
2023/05/07 11:10:51;;;;;;;4.53;1.30;;;31.50;1.00;;;;;;6216215;23;20412;-86
2023/05/07 11:13:18;;;;;;;5.60;1.40;;;30.80;1.00;;;;;;6216548;23;20713;-85
2023/05/07 11:15:47;;;;;;;7.00;1.60;;;30.90;1.00;;;;;;6215942;23;20408;-85
2023/05/07 11:18:17;;;;;;;5.93;2.20;;;30.50;1.00;;;;;;6216092;23;20408;-86
2023/05/07 11:20:58;;;;;;;5.07;1.73;;;30.50;1.00;;;;;;6215545;23;20435;-86
2023/05/07 11:24:08;;;;;;;5.60;1.30;;;30.30;1.00;;;;;;6216245;23;20868;-85
2023/05/07 11:26:46;;;;;;;4.57;1.50;;;30.10;1.00;;;;;;6215795;23;20407;-85
2023/05/07 11:29:14;;;;;;;6.00;1.70;;;29.50;1.00;;;;;;6215357;23;20519;-85
2023/05/07 11:31:41;;;;;;;4.50;1.40;;;29.50;1.00;;;;;;6216407;23;20412;-85
2023/05/07 11:34:09;;;;;;;5.67;1.43;;;29.50;1.00;;;;;;6216005;23;20418;-85
2023/05/07 11:36:41;;;;;;;7.20;1.47;;;29.90;1.00;;;;;;6215993;23;20473;-85
2023/05/07 11:39:24;;;;;;;5.70;1.37;;;29.70;1.00;;;;;;6215276;23;20845;-85
2023/05/07 11:41:51;;;;;;;5.20;1.60;;;29.20;1.00;;;;;;6216385;23;20447;-85
2023/05/07 11:44:18;;;;;;;6.90;1.40;;;29.60;1.00;;;;;;6225453;23;20518;-85
2023/05/07 11:46:45;;;;;;;5.73;1.60;;;29.60;1.00;;;;;;6215322;23;20416;-85
2023/05/07 11:49:14;;;;;;;4.60;1.57;;;29.80;1.00;;;;;;6215060;23;20947;-85
2023/05/07 11:51:41;;;;;;;8.13;1.87;;;29.20;1.00;;;;;;6215718;23;20490;-85
2023/05/07 11:54:11;;;;;;;5.30;1.70;;;29.10;1.00;;;;;;6215616;23;20412;-84
2023/05/07 11:56:38;;;;;;;7.37;1.47;;;29.40;1.00;;;;;;6215711;23;20393;-85
2023/05/07 11:59:06;;;;;;;5.33;1.83;;;29.90;1.00;;;;;;6215375;23;20497;-85
2023/05/07 12:01:32;;;;;;;5.23;1.30;;;29.60;1.00;;;;;;6215454;23;20427;-85
2023/05/07 12:04:03;;;;;;;4.80;1.67;;;29.20;1.00;;;;;;6215473;23;20443;-85
2023/05/07 12:06:32;;;;;;;5.00;1.53;;;28.80;1.00;;;;;;6215712;23;20396;-85
2023/05/07 12:08:58;;;;;;;5.03;1.13;;;28.70;1.00;;;;;;6215255;23;20442;-85
2023/05/07 12:11:26;;;;;;;4.70;1.90;;;28.20;1.00;;;;;;6215031;23;20495;-85
2023/05/07 12:13:55;;;;;;;5.27;1.60;;;28.00;1.00;;;;;;6215422;23;20422;-85
2023/05/07 12:16:23;;;;;;;5.63;1.70;;;27.60;1.00;;;;;;6215085;23;20418;-85
2023/05/07 12:18:52;;;;;;;7.40;2.00;;;27.00;1.00;;;;;;6214982;23;20414;-84
2023/05/07 12:21:19;;;;;;;6.77;1.57;;;26.50;3.40;;;;;;6215051;23;20412;-85
2023/05/07 12:23:48;;;;;;;5.33;1.67;;;26.30;4.90;;;;;;6215402;23;20420;-84
2023/05/07 12:26:15;;;;;;;4.70;1.40;;;26.00;7.10;;;;;;6214771;23;20462;-85
2023/05/07 12:28:43;;;;;;;4.83;1.70;;;25.70;7.20;;;;;;6214641;23;20431;-84
2023/05/07 12:31:10;;;;;;;5.60;1.57;;;25.40;5.30;;;;;;6215599;23;20471;-89
2023/05/07 12:33:37;;;;;;;6.53;1.93;;;25.10;7.00;;;;;;6217524;23;20932;-90